createdAt,value
2018-12-25T00:00:47.156Z,4.60
2018-12-25T00:03:18.633Z,4.50
2018-12-25T00:05:48.128Z,4.50
2018-12-25T00:08:17.676Z,4.50
2018-12-25T00:10:48.235Z,4.50
2018-12-25T00:13:18.780Z,4.50
2018-12-25T00:15:48.289Z,4.50
2018-12-25T00:18:18.126Z,4.50
2018-12-25T00:20:47.450Z,4.40
2018-12-25T00:23:19.028Z,4.40
2018-12-25T00:25:48.447Z,4.50
2018-12-25T00:28:23.956Z,4.40
2018-12-25T00:30:53.439Z,4.50
2018-12-25T00:33:33.126Z,4.50
2018-12-25T00:36:07.332Z,4.50
2018-12-25T00:38:43.645Z,4.50
2018-12-25T00:41:17.253Z,4.60
2018-12-25T00:43:48.838Z,4.50
2018-12-25T00:46:19.302Z,4.50
2018-12-25T00:48:50.800Z,4.50
2018-12-25T00:51:23.295Z,4.60
2018-12-25T00:53:52.816Z,4.60
2018-12-25T00:56:23.236Z,4.60
2018-12-25T00:58:53.686Z,4.60
2018-12-25T01:01:24.183Z,4.60
2018-12-25T01:03:54.689Z,4.60
2018-12-25T01:06:24.177Z,4.60
2018-12-25T01:08:59.865Z,4.60
2018-12-25T01:11:29.333Z,4.60
2018-12-25T01:13:58.834Z,4.60
2018-12-25T01:16:29.331Z,4.60
2018-12-25T01:18:58.868Z,4.60
2018-12-25T01:21:36.484Z,4.60
2018-12-25T01:24:20.127Z,4.60
2018-12-25T01:26:49.592Z,4.60
2018-12-25T01:29:20.048Z,4.60
2018-12-25T01:31:56.487Z,4.60
2018-12-25T01:34:25.945Z,4.60
2018-12-25T01:36:57.452Z,4.60
2018-12-25T01:39:29.987Z,4.50
2018-12-25T01:42:00.438Z,4.50
2018-12-25T01:44:34.115Z,4.50
2018-12-25T01:47:05.685Z,4.60
2018-12-25T01:49:35.134Z,4.50
2018-12-25T01:52:05.653Z,4.50
2018-12-25T01:54:36.162Z,4.50
2018-12-25T01:57:05.644Z,4.50
2018-12-25T01:59:36.114Z,4.50
2018-12-25T02:02:07.579Z,4.50
2018-12-25T02:04:41.117Z,4.50
2018-12-25T02:07:12.548Z,4.50
2018-12-25T02:09:43.984Z,4.50
2018-12-25T02:12:13.535Z,4.50
2018-12-25T02:14:43.001Z,4.50
2018-12-25T02:17:27.609Z,4.50
2018-12-25T02:19:57.021Z,4.50
2018-12-25T02:22:26.572Z,4.50
2018-12-25T02:25:13.313Z,4.50
2018-12-25T02:27:42.768Z,4.60
2018-12-25T02:30:12.309Z,4.50
2018-12-25T02:32:41.720Z,4.50
2018-12-25T02:35:11.237Z,4.60
2018-12-25T02:37:41.680Z,4.50
2018-12-25T02:40:16.893Z,4.50
2018-12-25T02:42:55.623Z,4.50
2018-12-25T02:45:26.161Z,4.50
2018-12-25T02:47:56.644Z,4.50
2018-12-25T02:50:28.132Z,4.50
2018-12-25T02:52:57.652Z,4.50
2018-12-25T02:55:27.113Z,4.50
2018-12-25T02:57:56.570Z,4.60
2018-12-25T03:00:28.892Z,4.50
2018-12-25T03:02:58.444Z,4.50
2018-12-25T03:05:27.957Z,4.50
2018-12-25T03:07:59.463Z,4.50
2018-12-25T03:10:28.948Z,4.60
2018-12-25T03:13:00.748Z,4.60
2018-12-25T03:15:36.283Z,4.50
2018-12-25T03:18:05.742Z,4.50
2018-12-25T03:20:54.313Z,4.60
2018-12-25T03:23:24.812Z,4.60
2018-12-25T03:25:55.251Z,4.60
2018-12-25T03:28:24.665Z,4.60
2018-12-25T03:30:54.163Z,4.50
2018-12-25T03:33:23.618Z,4.60
2018-12-25T03:35:53.088Z,4.60
2018-12-25T03:38:22.557Z,4.60
2018-12-25T03:40:55.132Z,4.60
2018-12-25T03:43:28.760Z,4.60
2018-12-25T03:45:58.211Z,4.60
2018-12-25T03:48:27.658Z,4.60
2018-12-25T03:50:57.139Z,4.60
2018-12-25T03:53:26.599Z,4.50
2018-12-25T03:56:04.881Z,4.60
2018-12-25T03:58:35.290Z,4.60
2018-12-25T04:01:06.772Z,4.60
2018-12-25T04:03:36.303Z,4.60
2018-12-25T04:06:05.780Z,4.60
2018-12-25T04:08:43.292Z,4.60
2018-12-25T04:11:14.693Z,4.60
2018-12-25T04:13:45.163Z,4.60
2018-12-25T04:16:14.674Z,4.70
2018-12-25T04:18:44.070Z,4.70
2018-12-25T04:21:14.524Z,4.70
2018-12-25T04:23:43.944Z,4.70
2018-12-25T04:26:13.477Z,4.70
2018-12-25T04:28:45.868Z,4.70
2018-12-25T04:31:16.258Z,4.80
2018-12-25T04:33:47.797Z,4.80
2018-12-25T04:36:18.335Z,4.80
2018-12-25T04:38:47.849Z,4.80
2018-12-25T04:41:17.358Z,4.80
2018-12-25T04:43:47.879Z,4.80
2018-12-25T04:46:17.406Z,4.80
2018-12-25T04:48:46.889Z,4.80
2018-12-25T04:51:22.358Z,4.70
2018-12-25T04:53:55.878Z,4.80
2018-12-25T04:56:37.702Z,4.80
2018-12-25T04:59:08.125Z,4.80
2018-12-25T05:01:39.649Z,4.80
2018-12-25T05:04:26.333Z,4.80
2018-12-25T05:06:56.766Z,4.80
2018-12-25T05:09:36.101Z,4.80
2018-12-25T05:12:05.632Z,4.80
2018-12-25T05:14:36.085Z,4.80
2018-12-25T05:17:12.560Z,4.80
2018-12-25T05:19:43.977Z,4.80
2018-12-25T05:22:20.359Z,4.80
2018-12-25T05:24:51.818Z,4.80
2018-12-25T05:27:22.197Z,4.80
2018-12-25T05:29:52.131Z,4.80
2018-12-25T05:32:22.710Z,4.80
2018-12-25T05:34:53.301Z,4.80
2018-12-25T05:37:24.834Z,4.80
2018-12-25T05:40:01.134Z,4.80
2018-12-25T05:42:30.598Z,4.80
2018-12-25T05:45:06.902Z,4.80
2018-12-25T05:47:37.379Z,4.80
2018-12-25T05:50:07.094Z,4.80
2018-12-25T05:52:38.589Z,4.80
2018-12-25T05:55:08.094Z,4.80
2018-12-25T05:57:38.540Z,4.80
2018-12-25T06:00:13.262Z,4.80
2018-12-25T06:02:43.684Z,4.80
2018-12-25T06:05:13.182Z,4.80
2018-12-25T06:07:56.584Z,4.80
2018-12-25T06:10:26.004Z,4.70
2018-12-25T06:12:55.483Z,4.70
2018-12-25T06:15:25.051Z,4.70
2018-12-25T06:17:56.451Z,4.70
2018-12-25T06:20:25.907Z,4.70
2018-12-25T06:22:59.555Z,4.70
2018-12-25T06:25:31.160Z,4.70
2018-12-25T06:28:01.622Z,4.70
2018-12-25T06:30:31.072Z,4.70
2018-12-25T06:33:03.673Z,4.70
2018-12-25T06:35:35.192Z,4.70
2018-12-25T06:38:10.652Z,4.70
2018-12-25T06:40:50.460Z,4.70
2018-12-25T06:43:20.965Z,4.70
2018-12-25T06:46:03.055Z,4.70
2018-12-25T06:48:41.551Z,4.70
2018-12-25T06:51:12.047Z,4.70
2018-12-25T06:53:42.485Z,4.70
2018-12-25T06:56:13.921Z,4.70
2018-12-25T06:58:44.371Z,4.70
2018-12-25T07:01:21.173Z,4.70
2018-12-25T07:03:50.671Z,4.80
2018-12-25T07:06:20.131Z,4.70
2018-12-25T07:08:56.676Z,4.80
2018-12-25T07:11:26.176Z,4.80
2018-12-25T07:13:55.622Z,4.80
2018-12-25T07:16:35.004Z,4.70
2018-12-25T07:19:06.438Z,4.80
2018-12-25T07:21:35.981Z,4.80
2018-12-25T07:24:05.490Z,4.90
2018-12-25T07:26:41.808Z,4.90
2018-12-25T07:29:16.450Z,4.90
2018-12-25T07:31:45.862Z,4.90
2018-12-25T07:34:15.326Z,4.90
2018-12-25T07:37:02.421Z,4.80
2018-12-25T07:39:32.980Z,4.80
2018-12-25T07:42:02.478Z,4.80
2018-12-25T07:44:31.986Z,4.80
2018-12-25T07:47:01.428Z,4.80
2018-12-25T07:49:31.941Z,4.90
2018-12-25T07:52:01.364Z,4.80
2018-12-25T07:54:30.834Z,4.80
2018-12-25T07:57:03.908Z,4.80
2018-12-25T07:59:35.470Z,4.80
2018-12-25T08:02:10.713Z,4.80
2018-12-25T08:04:47.932Z,4.70
2018-12-25T08:07:19.362Z,4.80
2018-12-25T08:09:51.788Z,4.80
2018-12-25T08:12:27.267Z,4.80
2018-12-25T08:14:57.815Z,4.80
2018-12-25T08:17:27.283Z,4.80
2018-12-25T08:19:57.742Z,4.80
2018-12-25T08:22:27.253Z,4.80
2018-12-25T08:24:59.531Z,4.80
2018-12-25T08:27:29.961Z,4.90
2018-12-25T08:29:59.577Z,4.80
2018-12-25T08:32:28.973Z,4.90
2018-12-25T08:35:00.638Z,4.90
2018-12-25T08:37:30.076Z,4.90
2018-12-25T08:40:01.637Z,5.00
2018-12-25T08:42:33.294Z,5.00
2018-12-25T08:45:03.870Z,5.00
2018-12-25T08:47:33.415Z,5.00
2018-12-25T08:50:02.943Z,5.00
2018-12-25T08:52:40.619Z,5.00
2018-12-25T08:55:12.156Z,5.00
2018-12-25T08:57:49.613Z,5.10
2018-12-25T09:00:20.136Z,5.20
2018-12-25T09:02:49.645Z,5.20
2018-12-25T09:05:22.470Z,5.20
2018-12-25T09:08:00.133Z,5.30
2018-12-25T09:10:34.745Z,5.40
2018-12-25T09:13:04.870Z,5.40
2018-12-25T09:15:36.425Z,5.30
2018-12-25T09:18:08.038Z,5.30
2018-12-25T09:20:39.594Z,5.30
2018-12-25T09:23:11.128Z,5.30
2018-12-25T09:25:41.690Z,5.40
2018-12-25T09:28:11.204Z,5.50
2018-12-25T09:30:40.677Z,5.50
2018-12-25T09:33:11.512Z,5.50
2018-12-25T09:35:41.030Z,5.50
2018-12-25T09:38:10.549Z,5.50
2018-12-25T09:40:40.092Z,5.40
2018-12-25T09:43:09.703Z,5.30
2018-12-25T09:45:40.154Z,5.30
2018-12-25T09:48:13.376Z,5.30
2018-12-25T09:50:46.649Z,5.50
2018-12-25T09:53:16.181Z,5.50
2018-12-25T09:55:45.675Z,5.50
2018-12-25T09:58:15.201Z,5.50
2018-12-25T10:00:45.625Z,5.60
2018-12-25T10:03:16.109Z,5.60
2018-12-25T10:05:48.738Z,5.70
2018-12-25T10:08:18.221Z,5.90
2018-12-25T10:10:47.717Z,5.90
2018-12-25T10:13:25.457Z,5.80
2018-12-25T10:15:56.001Z,5.80
2018-12-25T10:18:26.566Z,5.90
2018-12-25T10:20:56.005Z,5.80
2018-12-25T10:23:27.495Z,5.80
2018-12-25T10:26:04.001Z,5.80
2018-12-25T10:28:33.600Z,5.90
2018-12-25T10:31:03.149Z,5.90
2018-12-25T10:33:32.574Z,5.90
2018-12-25T10:36:02.100Z,6.00
2018-12-25T10:38:32.563Z,6.00
2018-12-25T10:41:04.081Z,6.20
2018-12-25T10:43:34.902Z,6.10
2018-12-25T10:46:04.442Z,6.10
2018-12-25T10:48:33.935Z,6.20
2018-12-25T10:51:13.291Z,6.40
2018-12-25T10:53:43.815Z,6.30
2018-12-25T10:56:24.499Z,6.10
2018-12-25T10:58:59.749Z,6.10
2018-12-25T11:01:32.660Z,6.20
2018-12-25T11:04:02.227Z,6.30
2018-12-25T11:06:31.744Z,6.20
2018-12-25T11:09:01.182Z,6.20
2018-12-25T11:11:32.828Z,6.20
2018-12-25T11:14:02.531Z,6.10
2018-12-25T11:16:33.946Z,6.00
2018-12-25T11:19:06.172Z,6.20
2018-12-25T11:21:36.060Z,6.30
2018-12-25T11:24:08.664Z,6.20
2018-12-25T11:26:43.959Z,6.20
2018-12-25T11:29:13.657Z,6.20
2018-12-25T11:31:43.604Z,6.20
2018-12-25T11:34:15.627Z,6.20
2018-12-25T11:36:45.081Z,6.20
2018-12-25T11:39:14.534Z,6.30
2018-12-25T11:41:45.026Z,6.30
2018-12-25T11:44:14.454Z,6.30
2018-12-25T11:46:43.952Z,6.10
2018-12-25T11:49:23.792Z,6.20
2018-12-25T11:51:53.261Z,6.30
2018-12-25T11:54:22.697Z,6.30
2018-12-25T11:56:52.110Z,6.40
2018-12-25T11:59:21.556Z,6.60
2018-12-25T12:01:50.972Z,6.70
2018-12-25T12:04:20.360Z,6.90
2018-12-25T12:06:49.815Z,6.70
2018-12-25T12:09:19.235Z,6.70
2018-12-25T12:11:48.697Z,6.90
2018-12-25T12:14:18.171Z,6.90
2018-12-25T12:16:50.659Z,7.10
2018-12-25T12:19:20.074Z,7.00
2018-12-25T12:21:49.562Z,6.90
2018-12-25T12:24:18.996Z,6.70
2018-12-25T12:26:48.457Z,6.70
2018-12-25T12:29:17.897Z,6.80
2018-12-25T12:31:47.338Z,6.80
2018-12-25T12:34:16.789Z,6.80
2018-12-25T12:36:46.239Z,6.80
2018-12-25T12:39:16.798Z,6.70
2018-12-25T12:41:46.219Z,6.70
2018-12-25T12:44:15.673Z,6.60
2018-12-25T12:46:45.100Z,6.60
2018-12-25T12:49:14.611Z,6.60
2018-12-25T12:51:44.194Z,6.60
2018-12-25T12:54:13.641Z,6.60
2018-12-25T12:56:43.102Z,6.60
2018-12-25T12:59:12.500Z,6.70
2018-12-25T13:01:44.147Z,6.70
2018-12-25T13:04:14.669Z,6.70
2018-12-25T13:06:44.087Z,6.60
2018-12-25T13:09:14.097Z,6.70
2018-12-25T13:11:43.484Z,6.60
2018-12-25T13:14:14.014Z,6.80
2018-12-25T13:16:43.401Z,6.80
2018-12-25T13:19:12.873Z,6.90
2018-12-25T13:21:42.338Z,6.90
2018-12-25T13:24:11.788Z,7.00
2018-12-25T13:26:41.209Z,7.00
2018-12-25T13:29:10.659Z,7.00
2018-12-25T13:31:44.201Z,6.90
2018-12-25T13:34:13.667Z,6.70
2018-12-25T13:36:44.200Z,6.50
2018-12-25T13:39:13.643Z,6.50
2018-12-25T13:41:43.065Z,6.40
2018-12-25T13:44:12.516Z,6.40
2018-12-25T13:46:41.952Z,6.40
2018-12-25T13:49:11.414Z,6.40
2018-12-25T13:51:41.353Z,6.30
2018-12-25T13:54:11.004Z,6.30
2018-12-25T13:56:40.428Z,6.30
2018-12-25T13:59:09.847Z,6.40
2018-12-25T14:01:41.387Z,6.50
2018-12-25T14:04:10.840Z,6.40
2018-12-25T14:06:40.381Z,6.30
2018-12-25T14:09:09.972Z,6.30
2018-12-25T14:11:39.372Z,6.10
2018-12-25T14:14:08.827Z,6.10
2018-12-25T14:16:38.239Z,6.10
2018-12-25T14:19:07.741Z,6.10
2018-12-25T14:21:37.510Z,6.10
2018-12-25T14:24:07.176Z,6.10
2018-12-25T14:26:36.617Z,6.10
2018-12-25T14:29:06.077Z,6.00
2018-12-25T14:31:35.480Z,6.00
2018-12-25T14:34:04.857Z,6.00
2018-12-25T14:36:34.335Z,6.10
2018-12-25T14:39:05.328Z,6.00
2018-12-25T14:41:34.783Z,6.00
2018-12-25T14:44:05.370Z,5.90
2018-12-25T14:46:35.096Z,5.80
2018-12-25T14:49:04.581Z,5.70
2018-12-25T14:51:34.004Z,5.70
2018-12-25T14:54:03.454Z,5.60
2018-12-25T14:56:32.887Z,5.60
2018-12-25T14:59:02.311Z,5.60
2018-12-25T15:01:32.745Z,5.60
2018-12-25T15:04:03.229Z,5.50
2018-12-25T15:06:32.665Z,5.50
2018-12-25T15:09:02.152Z,5.50
2018-12-25T15:11:31.575Z,5.50
2018-12-25T15:14:01.044Z,5.50
2018-12-25T15:16:30.484Z,5.50
2018-12-25T15:18:59.892Z,5.50
2018-12-25T15:21:35.333Z,5.60
2018-12-25T15:24:04.801Z,5.60
2018-12-25T15:26:34.208Z,5.50
2018-12-25T15:29:03.648Z,5.50
2018-12-25T15:31:33.082Z,5.50
2018-12-25T15:34:02.545Z,5.50
2018-12-25T15:36:31.984Z,5.50
2018-12-25T15:39:01.424Z,5.50
2018-12-25T15:41:30.818Z,5.50
2018-12-25T15:44:00.184Z,5.50
2018-12-25T15:46:29.651Z,5.50
2018-12-25T15:48:59.058Z,5.50
2018-12-25T15:51:28.499Z,5.40
2018-12-25T15:53:57.922Z,5.40
2018-12-25T15:56:27.279Z,5.40
2018-12-25T15:58:56.682Z,5.40
2018-12-25T16:01:26.116Z,5.40
2018-12-25T16:03:55.528Z,5.40
2018-12-25T16:06:24.967Z,5.40
2018-12-25T16:08:54.379Z,5.40
2018-12-25T16:11:23.841Z,5.40
2018-12-25T16:13:53.297Z,5.40
2018-12-25T16:16:22.724Z,5.30
2018-12-25T16:18:52.161Z,5.30
2018-12-25T16:21:21.591Z,5.30
2018-12-25T16:23:51.034Z,5.30
2018-12-25T16:26:20.526Z,5.30
2018-12-25T16:28:49.937Z,5.30
2018-12-25T16:31:19.398Z,5.30
2018-12-25T16:33:48.802Z,5.30
2018-12-25T16:36:18.269Z,5.30
2018-12-25T16:38:47.701Z,5.30
2018-12-25T16:41:17.110Z,5.30
2018-12-25T16:43:46.545Z,5.20
2018-12-25T16:46:15.968Z,5.20
2018-12-25T16:48:45.388Z,5.20
2018-12-25T16:51:14.813Z,5.20
2018-12-25T16:53:44.276Z,5.20
2018-12-25T16:56:13.718Z,5.20
2018-12-25T16:58:43.131Z,5.20
2018-12-25T17:01:12.525Z,5.20
2018-12-25T17:03:41.910Z,5.20
2018-12-25T17:06:11.271Z,5.10
2018-12-25T17:08:41.662Z,5.10
2018-12-25T17:11:11.058Z,5.10
2018-12-25T17:13:40.519Z,5.10
2018-12-25T17:16:09.936Z,5.10
2018-12-25T17:18:39.359Z,5.10
2018-12-25T17:21:08.804Z,5.10
2018-12-25T17:23:38.178Z,5.10
2018-12-25T17:26:07.630Z,5.10
2018-12-25T17:28:37.048Z,5.10
2018-12-25T17:31:07.479Z,5.10
2018-12-25T17:33:36.903Z,5.10
2018-12-25T17:36:07.421Z,5.10
2018-12-25T17:38:36.855Z,5.10
2018-12-25T17:41:06.780Z,5.10
2018-12-25T17:43:36.222Z,5.00
2018-12-25T17:46:05.644Z,5.00
2018-12-25T17:48:35.053Z,5.00
2018-12-25T17:51:04.491Z,4.90
2018-12-25T17:53:33.905Z,4.80
2018-12-25T17:56:03.315Z,4.80
2018-12-25T17:58:34.737Z,4.80
2018-12-25T18:01:04.222Z,4.80
2018-12-25T18:03:33.697Z,4.80
2018-12-25T18:06:03.148Z,4.80
2018-12-25T18:08:32.595Z,4.80
2018-12-25T18:11:02.048Z,4.80
2018-12-25T18:13:31.496Z,4.80
2018-12-25T18:16:00.917Z,4.80
2018-12-25T18:18:30.356Z,4.80
2018-12-25T18:20:59.836Z,4.80
2018-12-25T18:23:29.276Z,4.80
2018-12-25T18:25:58.714Z,4.70
2018-12-25T18:28:31.136Z,4.70
2018-12-25T18:31:00.590Z,4.70
2018-12-25T18:33:30.106Z,4.70
2018-12-25T18:35:59.678Z,4.70
2018-12-25T18:38:29.141Z,4.70
2018-12-25T18:41:00.603Z,4.70
2018-12-25T18:43:30.145Z,4.70
2018-12-25T18:45:59.666Z,4.80
2018-12-25T18:48:29.182Z,4.70
2018-12-25T18:50:59.627Z,4.70
2018-12-25T18:53:29.108Z,4.70
2018-12-25T18:55:58.623Z,4.60
2018-12-25T18:58:30.124Z,4.70
2018-12-25T19:01:00.629Z,4.60
2018-12-25T19:03:31.081Z,4.60
2018-12-25T19:06:00.517Z,4.60
2018-12-25T19:08:29.985Z,4.50
2018-12-25T19:11:00.464Z,4.50
2018-12-25T19:13:39.084Z,4.50
2018-12-25T19:16:11.788Z,4.50
2018-12-25T19:18:42.315Z,4.50
2018-12-25T19:21:12.907Z,4.50
2018-12-25T19:23:57.886Z,4.60
2018-12-25T19:26:34.713Z,4.60
2018-12-25T19:29:06.346Z,4.50
2018-12-25T19:31:36.705Z,4.50
2018-12-25T19:34:10.980Z,4.50
2018-12-25T19:36:43.991Z,4.50
2018-12-25T19:39:13.404Z,4.50
2018-12-25T19:41:42.899Z,4.50
2018-12-25T19:44:12.397Z,4.50
2018-12-25T19:46:42.920Z,4.50
2018-12-25T19:49:14.445Z,4.50
2018-12-25T19:51:53.941Z,4.50
2018-12-25T19:54:44.545Z,4.50
2018-12-25T19:57:10.011Z,4.50
2018-12-25T19:59:39.411Z,4.40
2018-12-25T20:02:08.941Z,4.40
2018-12-25T20:05:24.640Z,4.40
2018-12-25T20:08:32.358Z,4.30
2018-12-25T20:11:51.888Z,4.30
2018-12-25T20:15:10.817Z,4.30
2018-12-25T20:18:15.932Z,4.20
2018-12-25T20:21:12.141Z,4.10
2018-12-25T20:24:24.283Z,4.10
2018-12-25T20:27:29.562Z,4.00
2018-12-25T20:30:50.268Z,4.00
2018-12-25T20:34:05.664Z,3.90
2018-12-25T20:37:12.877Z,3.80
2018-12-25T20:40:17.840Z,3.80
2018-12-25T20:43:30.241Z,3.70
2018-12-25T20:46:55.617Z,3.60
2018-12-25T20:50:12.418Z,3.50
2018-12-25T20:53:22.944Z,3.40
2018-12-25T20:56:41.265Z,3.40
2018-12-25T21:00:09.784Z,3.30
2018-12-25T21:03:17.389Z,3.20
2018-12-25T21:06:11.204Z,3.10
2018-12-25T21:09:23.219Z,3.10
2018-12-25T21:12:31.804Z,3.00
2018-12-25T21:15:45.794Z,3.00
2018-12-25T21:19:07.624Z,2.90
2018-12-25T21:22:19.107Z,3.00
2018-12-25T21:25:24.276Z,2.90
2018-12-25T21:27:52.085Z,2.90
2018-12-25T21:30:22.544Z,2.80
2018-12-25T21:32:55.102Z,2.70
2018-12-25T21:35:31.237Z,2.60
2018-12-25T21:38:01.285Z,2.60
2018-12-25T21:40:30.820Z,2.60
2018-12-25T21:43:00.564Z,2.60
2018-12-25T21:45:33.274Z,2.50
2018-12-25T21:48:05.881Z,2.50
2018-12-25T21:50:38.484Z,2.50
2018-12-25T21:53:10.274Z,2.40
2018-12-25T21:55:39.928Z,2.40
2018-12-25T21:58:17.664Z,2.30
2018-12-25T22:00:47.136Z,2.30
2018-12-25T22:03:17.103Z,2.30
2018-12-25T22:06:05.120Z,2.20
2018-12-25T22:08:36.704Z,2.20
2018-12-25T22:11:06.134Z,2.10
2018-12-25T22:13:37.697Z,2.10
2018-12-25T22:16:07.240Z,2.10
2018-12-25T22:18:37.828Z,2.00
2018-12-25T22:21:07.358Z,2.00
2018-12-25T22:23:38.932Z,2.00
2018-12-25T22:26:09.394Z,1.90
2018-12-25T22:28:40.731Z,1.90
2018-12-25T22:31:10.196Z,1.90
2018-12-25T22:33:40.220Z,1.80
2018-12-25T22:36:13.516Z,1.70
2018-12-25T22:38:42.966Z,1.70
2018-12-25T22:41:14.440Z,1.70
2018-12-25T22:43:50.141Z,1.70
2018-12-25T22:46:19.630Z,1.70
2018-12-25T22:48:49.167Z,1.70
2018-12-25T22:51:30.670Z,1.60
2018-12-25T22:54:06.445Z,1.70
2018-12-25T22:56:36.938Z,1.60
2018-12-25T22:59:12.318Z,1.60
2018-12-25T23:01:42.939Z,1.60
2018-12-25T23:04:12.502Z,1.50
2018-12-25T23:06:42.058Z,1.40
2018-12-25T23:09:11.642Z,1.40
2018-12-25T23:11:42.144Z,1.40
2018-12-25T23:14:11.665Z,1.40
2018-12-25T23:16:53.265Z,1.40
2018-12-25T23:19:28.616Z,1.30
2018-12-25T23:22:05.378Z,1.20
2018-12-25T23:24:34.770Z,1.30
2018-12-25T23:27:04.221Z,1.20
2018-12-25T23:29:33.726Z,1.20
2018-12-25T23:32:03.458Z,1.20
2018-12-25T23:34:33.005Z,1.20
2018-12-25T23:37:10.025Z,1.20
2018-12-25T23:39:39.464Z,1.20
2018-12-25T23:42:09.924Z,1.20
2018-12-25T23:44:39.480Z,1.20
2018-12-25T23:47:10.443Z,1.20
2018-12-25T23:49:40.943Z,1.20
2018-12-25T23:52:18.717Z,1.10
2018-12-25T23:54:53.435Z,1.10
2018-12-25T23:57:24.116Z,1.10
2018-12-25T23:59:53.583Z,1.10
